Strona główna
METAR-TAF:

METAR-TAF

Lotnisko :

Fort Meade, Maryland, Stany Zjednoczone

Szerokość geograficzna: 39-05N, Długość geograficzna: 076-46W, wysokość: 46 m

Aktualna obserwacja pogody

Raport powstał 12 minut temu, godzina 22:15 UTC
Wiatr 3 kt od wschodnio-południowy wschód
Temperatura 3°C
Wilgotność 81%
Ciśnienie 1029 hPa
Widzialność: 16.1 km
Rozproszone chmury na wysokości 4700 ft

METAR: KFME 082215Z AUTO 12003KT 10SM SCT047 03/00 A3040 RMK AO1

czas: 17:27 (22:27 UTC)


TAF: brakujący

Obserwacja i prognoza pogody dla ponad 4000 lotnisk (raport METAR i TAF).

Dostępne stacje oznaczono żółtymi i czerwonymi punktami na mapie.

Najedź kursorem aby zobaczyć nazwę stacji.

Kliknij aby zobaczyć obserwacje i prognozy pogody.

Aby zmienić mapę: kliknij na zielony przycisk z czarnym krzyżykiem, aby powiększyć; na zielony przycisk z myślnikiem, aby pomniejszyć; na zielone strzałki, aby przejść do map sąsiednich.


METAR-TAF: